PWSweather.com
Personal Weather Stations
Station Observations
EMMBROOK1
Emmbrook, WokinghamGB

EmmbrookWokinghamGB

Lat: 51.42698, Lon: -0.850575

Elevation: 144

Station Type: WH1081

http://www.wokinghamweather.co.uk

High Low Average
Temperature 56.8°F13.8°F 47.5°F8.6°F 50.4°F10.2°F
Dew Point 52.3°F11.3°F 43.8°F6.6°F 46.7°F8.2°F
Winds 8.8 mph -14.2 mph - 0.6 mph 1.0 mph 4.0 mph 6.4 mph
Wind Gusts 14.5 mph23.3 mph 1.6 mph2.6 mph 6.8 mph10.9 mph
Humidity 95% 72% 88%
Pressure 29.89 in1012.20 in 29.69 in1005.40 in -
Precipitation 0.41 in10.40 in - -
Hour Temp Dew Point Humidity Winds Wind Gusts Pressure Precip Precip Rate Daily Precip Total
12:00 AM 48.0°F8.9°C 46.1°F7.8°C 93% 4.5 mph SSE7.2 kmh SSE 12.1 mph19.5 kmh 29.70 in1005.8 mb 0.00 in0.0 mm 0.00 in0.0 mm 0.00 in0.0 mm
12:15 AM 48.6°F9.2°C 46.3°F7.9°C 92% 4.7 mph SSE7.6 kmh SSE 7.6 mph12.2 kmh 29.69 in1005.4 mb 0.00 in0.0 mm 0.00 in0.0 mm 0.00 in0.0 mm
12:30 AM 48.9°F9.4°C 46.7°F8.2°C 92% 3.9 mph SSE6.3 kmh SSE 6.0 mph9.7 kmh 29.69 in1005.4 mb 0.00 in0.0 mm 0.00 in0.0 mm 0.00 in0.0 mm
12:45 AM 48.7°F9.3°C 46.5°F8.1°C 92% 3.7 mph S6.0 kmh S 5.4 mph8.7 kmh 29.70 in1005.8 mb 0.00 in0.0 mm 0.00 in0.0 mm 0.00 in0.0 mm
01:00 AM 48.7°F9.3°C 46.2°F7.9°C 91% 3.2 mph SSE5.1 kmh SSE 5.4 mph8.7 kmh 29.70 in1005.8 mb 0.00 in0.0 mm 0.00 in0.0 mm 0.00 in0.0 mm
01:15 AM 48.6°F9.2°C 46.1°F7.8°C 91% 3.9 mph S6.3 kmh S 6.0 mph9.7 kmh 29.70 in1005.8 mb 0.00 in0.0 mm 0.00 in0.0 mm 0.00 in0.0 mm
01:30 AM 48.7°F9.3°C 46.2°F7.9°C 91% 4.5 mph SSE7.2 kmh SSE 8.3 mph13.4 kmh 29.70 in1005.8 mb 0.00 in0.0 mm 0.00 in0.0 mm 0.00 in0.0 mm
01:45 AM 48.9°F9.4°C 46.4°F8.0°C 91% 3.9 mph SE6.3 kmh SE 7.6 mph12.2 kmh 29.70 in1005.8 mb 0.00 in0.0 mm 0.00 in0.0 mm 0.00 in0.0 mm
02:00 AM 48.6°F9.2°C 46.1°F7.8°C 91% 2.2 mph S3.5 kmh S 5.4 mph8.7 kmh 29.71 in1006.1 mb 0.00 in0.0 mm 0.00 in0.0 mm 0.00 in0.0 mm
02:15 AM 48.4°F9.1°C 45.9°F7.7°C 91% 2.9 mph SE4.7 kmh SE 3.8 mph6.1 kmh 29.70 in1005.8 mb 0.00 in0.0 mm 0.00 in0.0 mm 0.00 in0.0 mm
02:30 AM 48.4°F9.1°C 45.9°F7.7°C 91% 0.6 mph S1.0 kmh S 1.6 mph2.6 kmh 29.71 in1006.1 mb 0.01 in0.3 mm 0.04 in1.0 mm 0.01 in0.3 mm
02:45 AM 48.4°F9.1°C 45.9°F7.7°C 91% 0.9 mph SSE1.4 kmh SSE 3.1 mph5.0 kmh 29.70 in1005.8 mb 0.01 in0.3 mm 0.00 in0.0 mm 0.01 in0.3 mm
03:00 AM 48.4°F9.1°C 45.9°F7.7°C 91% 1.1 mph S1.8 kmh S 2.2 mph3.5 kmh 29.70 in1005.8 mb 0.01 in0.3 mm 0.00 in0.0 mm 0.01 in0.3 mm
03:15 AM 48.0°F8.9°C 45.8°F7.7°C 92% 1.0 mph SE1.6 kmh SE 2.2 mph3.5 kmh 29.70 in1005.8 mb 0.01 in0.3 mm 0.00 in0.0 mm 0.01 in0.3 mm
03:30 AM 47.8°F8.8°C 45.6°F7.6°C 92% 2.3 mph SE3.7 kmh SE 3.1 mph5.0 kmh 29.70 in1005.8 mb 0.00 in0.0 mm 0.00 in0.0 mm 0.01 in0.3 mm
03:45 AM 47.7°F8.7°C 45.5°F7.5°C 92% 2.0 mph SSE3.2 kmh SSE 3.1 mph5.0 kmh 29.70 in1005.8 mb 0.01 in0.3 mm 0.04 in1.0 mm 0.02 in0.5 mm
04:00 AM 47.7°F8.7°C 45.7°F7.6°C 93% 1.9 mph SSE3.1 kmh SSE 3.8 mph6.1 kmh 29.70 in1005.8 mb 0.01 in0.3 mm 0.00 in0.0 mm 0.02 in0.5 mm
04:15 AM 47.5°F8.6°C 45.6°F7.6°C 93% 2.0 mph SSE3.2 kmh SSE 3.1 mph5.0 kmh 29.70 in1005.8 mb 0.01 in0.3 mm 0.00 in0.0 mm 0.02 in0.5 mm
04:30 AM 47.7°F8.7°C 45.7°F7.6°C 93% 2.6 mph SSE4.2 kmh SSE 3.1 mph5.0 kmh 29.70 in1005.8 mb 0.01 in0.3 mm 0.00 in0.0 mm 0.02 in0.5 mm
04:45 AM 47.8°F8.8°C 45.9°F7.7°C 93% 2.5 mph S4.0 kmh S 3.8 mph6.1 kmh 29.71 in1006.1 mb 0.00 in0.0 mm 0.00 in0.0 mm 0.02 in0.5 mm
05:00 AM 47.8°F8.8°C 45.9°F7.7°C 93% 2.8 mph S4.5 kmh S 3.8 mph6.1 kmh 29.71 in1006.1 mb 0.00 in0.0 mm 0.00 in0.0 mm 0.02 in0.5 mm
05:15 AM 48.2°F9.0°C 46.0°F7.8°C 92% 4.0 mph S6.4 kmh S 6.0 mph9.7 kmh 29.72 in1006.4 mb 0.00 in0.0 mm 0.00 in0.0 mm 0.02 in0.5 mm
05:30 AM 48.7°F9.3°C 46.8°F8.2°C 93% 4.2 mph SSE6.8 kmh SSE 6.9 mph11.1 kmh 29.72 in1006.4 mb 0.00 in0.0 mm 0.00 in0.0 mm 0.02 in0.5 mm
05:45 AM 48.7°F9.3°C 46.8°F8.2°C 93% 2.8 mph S4.5 kmh S 4.5 mph7.2 kmh 29.72 in1006.4 mb 0.00 in0.0 mm 0.00 in0.0 mm 0.02 in0.5 mm
06:00 AM 48.4°F9.1°C 46.5°F8.1°C 93% 3.4 mph SSE5.5 kmh SSE 6.0 mph9.7 kmh 29.72 in1006.4 mb 0.00 in0.0 mm 0.00 in0.0 mm 0.02 in0.5 mm
06:15 AM 48.4°F9.1°C 46.5°F8.1°C 93% 3.1 mph SSE5.0 kmh SSE 5.4 mph8.7 kmh 29.73 in1006.8 mb 0.00 in0.0 mm 0.00 in0.0 mm 0.02 in0.5 mm
06:30 AM 48.4°F9.1°C 46.5°F8.1°C 93% 3.0 mph SSE4.8 kmh SSE 5.4 mph8.7 kmh 29.72 in1006.4 mb 0.00 in0.0 mm 0.00 in0.0 mm 0.02 in0.5 mm
06:45 AM 48.0°F8.9°C 46.4°F8.0°C 94% 2.6 mph S4.2 kmh S 3.8 mph6.1 kmh 29.73 in1006.8 mb 0.00 in0.0 mm 0.00 in0.0 mm 0.02 in0.5 mm
07:00 AM 48.2°F9.0°C 46.3°F7.9°C 93% 3.1 mph SE5.0 kmh SE 3.8 mph6.1 kmh 29.74 in1007.1 mb 0.00 in0.0 mm 0.00 in0.0 mm 0.02 in0.5 mm
07:15 AM 48.2°F9.0°C 46.3°F7.9°C 93% 3.1 mph S5.0 kmh S 4.5 mph7.2 kmh 29.75 in1007.5 mb 0.00 in0.0 mm 0.00 in0.0 mm 0.02 in0.5 mm
07:30 AM 48.0°F8.9°C 46.4°F8.0°C 94% 2.5 mph SSE4.0 kmh SSE 4.5 mph7.2 kmh 29.75 in1007.5 mb 0.00 in0.0 mm 0.00 in0.0 mm 0.02 in0.5 mm
07:45 AM 47.8°F8.8°C 46.2°F7.9°C 94% 1.7 mph SE2.7 kmh SE 3.1 mph5.0 kmh 29.76 in1007.8 mb 0.00 in0.0 mm 0.00 in0.0 mm 0.02 in0.5 mm
08:00 AM 47.5°F8.6°C 45.8°F7.7°C 94% 2.3 mph SSE3.7 kmh SSE 3.8 mph6.1 kmh 29.77 in1008.1 mb 0.00 in0.0 mm 0.00 in0.0 mm 0.02 in0.5 mm
08:15 AM 47.7°F8.7°C 46.0°F7.8°C 94% 2.9 mph S4.7 kmh S 4.5 mph7.2 kmh 29.77 in1008.1 mb 0.00 in0.0 mm 0.00 in0.0 mm 0.02 in0.5 mm
08:30 AM 48.0°F8.9°C 46.7°F8.2°C 95% 3.2 mph S5.1 kmh S 3.8 mph6.1 kmh 29.78 in1008.5 mb 0.00 in0.0 mm 0.00 in0.0 mm 0.02 in0.5 mm
08:45 AM 48.2°F9.0°C 46.6°F8.1°C 94% 3.0 mph S4.8 kmh S 4.5 mph7.2 kmh 29.78 in1008.5 mb 0.00 in0.0 mm 0.00 in0.0 mm 0.02 in0.5 mm
09:00 AM 48.6°F9.2°C 46.9°F8.3°C 94% 3.5 mph S5.6 kmh S 7.6 mph12.2 kmh 29.78 in1008.5 mb 0.00 in0.0 mm 0.00 in0.0 mm 0.02 in0.5 mm
09:15 AM 49.1°F9.5°C 47.5°F8.6°C 94% 4.2 mph S6.8 kmh S 6.0 mph9.7 kmh 29.78 in1008.5 mb 0.00 in0.0 mm 0.00 in0.0 mm 0.02 in0.5 mm
09:30 AM 50.2°F10.1°C 48.5°F9.2°C 94% 5.7 mph S9.2 kmh S 8.3 mph13.4 kmh 29.79 in1008.8 mb 0.00 in0.0 mm 0.00 in0.0 mm 0.02 in0.5 mm
09:45 AM 50.7°F10.4°C 49.1°F9.5°C 94% 3.1 mph SE5.0 kmh SE 4.5 mph7.2 kmh 29.78 in1008.5 mb 0.00 in0.0 mm 0.00 in0.0 mm 0.02 in0.5 mm
10:00 AM 51.6°F10.9°C 50.0°F10.0°C 94% 3.1 mph S5.0 kmh S 7.6 mph12.2 kmh 29.79 in1008.8 mb 0.00 in0.0 mm 0.00 in0.0 mm 0.02 in0.5 mm
10:15 AM 52.5°F11.4°C 50.8°F10.4°C 94% 5.0 mph SE8.0 kmh SE 9.2 mph14.8 kmh 29.79 in1008.8 mb 0.00 in0.0 mm 0.00 in0.0 mm 0.02 in0.5 mm
10:30 AM 53.4°F11.9°C 51.7°F10.9°C 94% 5.8 mph SSE9.3 kmh SSE 9.2 mph14.8 kmh 29.79 in1008.8 mb 0.00 in0.0 mm 0.00 in0.0 mm 0.02 in0.5 mm
10:45 AM 54.3°F12.4°C 52.3°F11.3°C 93% 6.5 mph S10.5 kmh S 9.8 mph15.8 kmh 29.79 in1008.8 mb 0.00 in0.0 mm 0.00 in0.0 mm 0.02 in0.5 mm
11:00 AM 54.7°F12.6°C 52.1°F11.2°C 91% 6.1 mph S9.8 kmh S 9.8 mph15.8 kmh 29.78 in1008.5 mb 0.00 in0.0 mm 0.00 in0.0 mm 0.02 in0.5 mm
11:15 AM 55.2°F12.9°C 51.7°F10.9°C 88% 6.1 mph SSE9.8 kmh SSE 9.2 mph14.8 kmh 29.78 in1008.5 mb 0.00 in0.0 mm 0.00 in0.0 mm 0.02 in0.5 mm
11:30 AM 55.9°F13.3°C 51.2°F10.7°C 84% 5.6 mph SSE9.0 kmh SSE 11.4 mph18.3 kmh 29.78 in1008.5 mb 0.00 in0.0 mm 0.00 in0.0 mm 0.02 in0.5 mm
11:45 AM 56.7°F13.7°C 50.6°F10.3°C 80% 6.3 mph SW10.1 kmh SW 9.8 mph15.8 kmh 29.78 in1008.5 mb 0.00 in0.0 mm 0.00 in0.0 mm 0.02 in0.5 mm
12:00 PM 56.8°F13.8°C 49.7°F9.8°C 77% 6.1 mph S9.8 kmh S 9.2 mph14.8 kmh 29.78 in1008.5 mb 0.00 in0.0 mm 0.00 in0.0 mm 0.02 in0.5 mm
12:15 PM 56.8°F13.8°C 49.0°F9.4°C 75% 8.1 mph S13.0 kmh S 13.0 mph20.9 kmh 29.78 in1008.5 mb 0.00 in0.0 mm 0.00 in0.0 mm 0.02 in0.5 mm
12:30 PM 56.5°F13.6°C 48.7°F9.3°C 75% 6.9 mph SSE11.1 kmh SSE 9.8 mph15.8 kmh 29.78 in1008.5 mb 0.00 in0.0 mm 0.00 in0.0 mm 0.02 in0.5 mm
12:45 PM 56.8°F13.8°C 48.3°F9.1°C 73% 6.9 mph S11.1 kmh S 9.8 mph15.8 kmh 29.78 in1008.5 mb 0.00 in0.0 mm 0.00 in0.0 mm 0.02 in0.5 mm
01:00 PM 56.7°F13.7°C 47.7°F8.7°C 72% 8.8 mph SW14.2 kmh SW 14.5 mph23.3 kmh 29.80 in1009.1 mb 0.02 in0.5 mm 0.03 in0.8 mm 0.05 in1.3 mm
01:15 PM 53.8°F12.1°C 46.1°F7.8°C 75% 3.8 mph S6.1 kmh S 6.9 mph11.1 kmh 29.79 in1008.8 mb 0.02 in0.5 mm 0.00 in0.0 mm 0.05 in1.3 mm
01:30 PM 52.7°F11.5°C 46.4°F8.0°C 79% 2.7 mph S4.3 kmh S 6.0 mph9.7 kmh 29.79 in1008.8 mb 0.04 in1.0 mm 0.08 in2.0 mm 0.06 in1.5 mm
01:45 PM 52.7°F11.5°C 47.4°F8.6°C 82% 4.8 mph SSW7.7 kmh SSW 11.4 mph18.3 kmh 29.79 in1008.8 mb 0.05 in1.3 mm 0.04 in1.0 mm 0.07 in1.8 mm
02:00 PM 53.4°F11.9°C 48.7°F9.3°C 84% 5.3 mph S8.5 kmh S 7.6 mph12.2 kmh 29.80 in1009.1 mb 0.02 in0.5 mm 0.00 in0.0 mm 0.07 in1.8 mm
02:15 PM 54.3°F12.4°C 49.3°F9.6°C 83% 7.5 mph SW12.1 kmh SW 13.6 mph21.9 kmh 29.79 in1008.8 mb 0.02 in0.5 mm 0.00 in0.0 mm 0.07 in1.8 mm
02:30 PM 54.5°F12.5°C 48.1°F8.9°C 79% 4.6 mph SW7.4 kmh SW 7.6 mph12.2 kmh 29.79 in1008.8 mb 0.01 in0.3 mm 0.00 in0.0 mm 0.07 in1.8 mm
02:45 PM 54.5°F12.5°C 47.8°F8.8°C 78% 3.7 mph WSW6.0 kmh WSW 8.3 mph13.4 kmh 29.80 in1009.1 mb 0.00 in0.0 mm 0.00 in0.0 mm 0.07 in1.8 mm
03:00 PM 54.0°F12.2°C 46.2°F7.9°C 75% 5.5 mph SSW8.9 kmh SSW 10.7 mph17.2 kmh 29.80 in1009.1 mb 0.00 in0.0 mm 0.00 in0.0 mm 0.07 in1.8 mm
03:15 PM 53.8°F12.1°C 46.1°F7.8°C 75% 4.2 mph S6.8 kmh S 7.6 mph12.2 kmh 29.81 in1009.5 mb 0.00 in0.0 mm 0.00 in0.0 mm 0.07 in1.8 mm
03:30 PM 53.6°F12.0°C 45.9°F7.7°C 75% 5.7 mph S9.2 kmh S 8.3 mph13.4 kmh 29.80 in1009.1 mb 0.00 in0.0 mm 0.00 in0.0 mm 0.07 in1.8 mm
03:45 PM 52.9°F11.6°C 45.2°F7.3°C 75% 4.4 mph SSW7.1 kmh SSW 7.6 mph12.2 kmh 29.81 in1009.5 mb 0.00 in0.0 mm 0.00 in0.0 mm 0.07 in1.8 mm
04:00 PM 52.3°F11.3°C 45.0°F7.2°C 76% 3.0 mph SSE4.8 kmh SSE 6.0 mph9.7 kmh 29.82 in1009.8 mb 0.00 in0.0 mm 0.00 in0.0 mm 0.07 in1.8 mm
04:15 PM 52.0°F11.1°C 45.3°F7.4°C 78% 4.3 mph S6.9 kmh S 9.2 mph14.8 kmh 29.82 in1009.8 mb 0.00 in0.0 mm 0.00 in0.0 mm 0.07 in1.8 mm
04:30 PM 52.3°F11.3°C 46.0°F7.8°C 79% 4.1 mph S6.6 kmh S 5.4 mph8.7 kmh 29.83 in1010.2 mb 0.00 in0.0 mm 0.00 in0.0 mm 0.07 in1.8 mm
04:45 PM 52.2°F11.2°C 45.9°F7.7°C 79% 3.6 mph S5.8 kmh S 8.3 mph13.4 kmh 29.83 in1010.2 mb 0.00 in0.0 mm 0.00 in0.0 mm 0.07 in1.8 mm
05:00 PM 52.0°F11.1°C 45.7°F7.6°C 79% 4.4 mph S7.1 kmh S 7.6 mph12.2 kmh 29.84 in1010.5 mb 0.00 in0.0 mm 0.00 in0.0 mm 0.07 in1.8 mm
05:15 PM 51.8°F11.0°C 45.8°F7.7°C 80% 3.9 mph SE6.3 kmh SE 7.6 mph12.2 kmh 29.84 in1010.5 mb 0.00 in0.0 mm 0.00 in0.0 mm 0.07 in1.8 mm
05:30 PM 52.0°F11.1°C 46.3°F7.9°C 81% 4.5 mph S7.2 kmh S 6.9 mph11.1 kmh 29.85 in1010.8 mb 0.01 in0.3 mm 0.04 in1.0 mm 0.08 in2.0 mm
05:45 PM 51.1°F10.6°C 46.1°F7.8°C 83% 4.6 mph SSW7.4 kmh SSW 11.4 mph18.3 kmh 29.85 in1010.8 mb 0.04 in1.0 mm 0.12 in3.0 mm 0.11 in2.8 mm
06:00 PM 50.2°F10.1°C 45.5°F7.5°C 84% 2.7 mph SW4.3 kmh SW 4.5 mph7.2 kmh 29.85 in1010.8 mb 0.04 in1.0 mm 0.00 in0.0 mm 0.11 in2.8 mm
06:15 PM 49.5°F9.7°C 45.5°F7.5°C 86% 4.5 mph S7.2 kmh S 6.9 mph11.1 kmh 29.84 in1010.5 mb 0.04 in1.0 mm 0.00 in0.0 mm 0.11 in2.8 mm
06:30 PM 49.5°F9.7°C 45.8°F7.7°C 87% 4.6 mph SSE7.4 kmh SSE 8.3 mph13.4 kmh 29.85 in1010.8 mb 0.02 in0.5 mm 0.00 in0.0 mm 0.11 in2.8 mm
06:45 PM 49.5°F9.7°C 46.1°F7.8°C 88% 3.5 mph SE5.6 kmh SE 4.5 mph7.2 kmh 29.85 in1010.8 mb 0.00 in0.0 mm 0.00 in0.0 mm 0.11 in2.8 mm
07:00 PM 49.5°F9.7°C 46.4°F8.0°C 89% 3.9 mph S6.3 kmh S 6.0 mph9.7 kmh 29.85 in1010.8 mb 0.00 in0.0 mm 0.00 in0.0 mm 0.11 in2.8 mm
07:15 PM 49.1°F9.5°C 46.0°F7.8°C 89% 2.8 mph SSE4.5 kmh SSE 6.0 mph9.7 kmh 29.86 in1011.2 mb 0.00 in0.0 mm 0.00 in0.0 mm 0.11 in2.8 mm
07:30 PM 48.9°F9.4°C 45.8°F7.7°C 89% 3.1 mph SSE5.0 kmh SSE 5.4 mph8.7 kmh 29.86 in1011.2 mb 0.00 in0.0 mm 0.00 in0.0 mm 0.11 in2.8 mm
07:45 PM 48.7°F9.3°C 45.6°F7.6°C 89% 2.4 mph S3.9 kmh S 4.5 mph7.2 kmh 29.85 in1010.8 mb 0.00 in0.0 mm 0.00 in0.0 mm 0.11 in2.8 mm
08:00 PM 48.6°F9.2°C 45.5°F7.5°C 89% 3.6 mph S5.8 kmh S 6.0 mph9.7 kmh 29.85 in1010.8 mb 0.00 in0.0 mm 0.00 in0.0 mm 0.11 in2.8 mm
08:15 PM 48.7°F9.3°C 45.9°F7.7°C 90% 4.0 mph SSW6.4 kmh SSW 7.6 mph12.2 kmh 29.85 in1010.8 mb 0.00 in0.0 mm 0.00 in0.0 mm 0.11 in2.8 mm
08:30 PM 49.1°F9.5°C 46.3°F7.9°C 90% 4.2 mph SW6.8 kmh SW 6.9 mph11.1 kmh 29.85 in1010.8 mb 0.00 in0.0 mm 0.00 in0.0 mm 0.11 in2.8 mm
08:45 PM 48.9°F9.4°C 45.8°F7.7°C 89% 2.5 mph SSE4.0 kmh SSE 4.5 mph7.2 kmh 29.86 in1011.2 mb 0.00 in0.0 mm 0.00 in0.0 mm 0.11 in2.8 mm
09:00 PM 48.7°F9.3°C 45.6°F7.6°C 89% 4.5 mph SSE7.2 kmh SSE 8.3 mph13.4 kmh 29.86 in1011.2 mb 0.00 in0.0 mm 0.00 in0.0 mm 0.11 in2.8 mm
09:15 PM 48.7°F9.3°C 45.6°F7.6°C 89% 4.0 mph SSE6.4 kmh SSE 6.9 mph11.1 kmh 29.86 in1011.2 mb 0.00 in0.0 mm 0.00 in0.0 mm 0.11 in2.8 mm
09:30 PM 48.9°F9.4°C 45.8°F7.7°C 89% 3.9 mph S6.3 kmh S 9.8 mph15.8 kmh 29.86 in1011.2 mb 0.00 in0.0 mm 0.00 in0.0 mm 0.11 in2.8 mm
09:45 PM 48.9°F9.4°C 45.8°F7.7°C 89% 3.8 mph S6.1 kmh S 6.0 mph9.7 kmh 29.86 in1011.2 mb 0.00 in0.0 mm 0.00 in0.0 mm 0.11 in2.8 mm
10:00 PM 48.7°F9.3°C 45.6°F7.6°C 89% 3.5 mph S5.6 kmh S 6.9 mph11.1 kmh 29.86 in1011.2 mb 0.00 in0.0 mm 0.00 in0.0 mm 0.11 in2.8 mm
10:15 PM 48.7°F9.3°C 45.6°F7.6°C 89% 2.5 mph S4.0 kmh S 3.8 mph6.1 kmh 29.85 in1010.8 mb 0.00 in0.0 mm 0.00 in0.0 mm 0.11 in2.8 mm
10:30 PM 48.9°F9.4°C 45.8°F7.7°C 89% 3.6 mph SSE5.8 kmh SSE 5.4 mph8.7 kmh 29.86 in1011.2 mb 0.00 in0.0 mm 0.00 in0.0 mm 0.11 in2.8 mm
10:45 PM 49.1°F9.5°C 46.0°F7.8°C 89% 3.1 mph SSW5.0 kmh SSW 6.0 mph9.7 kmh 29.86 in1011.2 mb 0.00 in0.0 mm 0.00 in0.0 mm 0.11 in2.8 mm
11:00 PM 49.1°F9.5°C 46.0°F7.8°C 89% 3.6 mph SSW5.8 kmh SSW 6.9 mph11.1 kmh 29.86 in1011.2 mb 0.00 in0.0 mm 0.00 in0.0 mm 0.11 in2.8 mm
11:15 PM 49.3°F9.6°C 45.9°F7.7°C 88% 6.3 mph SW10.1 kmh SW 9.8 mph15.8 kmh 29.88 in1011.9 mb 0.00 in0.0 mm 0.00 in0.0 mm 0.11 in2.8 mm
11:30 PM 49.3°F9.6°C 45.0°F7.2°C 85% 7.9 mph WSW12.7 kmh WSW 13.6 mph21.9 kmh 29.88 in1011.9 mb 0.00 in0.0 mm 0.00 in0.0 mm 0.11 in2.8 mm
11:45 PM 49.1°F9.5°C 43.8°F6.6°C 82% 6.9 mph SW11.1 kmh SW 9.8 mph15.8 kmh 29.89 in1012.2 mb 0.00 in0.0 mm 0.00 in0.0 mm 0.11 in2.8 mm